Nashville, Tennessee
Traffic Map
Current Weather Conditions
Nashville, Tennessee
Scattered Clouds
Scattered Clouds

Feels Like: 4°
Wind Chill: Ceiling: Unl
Heat Index: Visibility: 10mi
Dew Point: -11° Wind: 3mph
Humidity: 32% Direction: ° ()
Pressure: 30.49in Gusts: 0mph
Raw Report DataKBNA 101953Z VRB03KT 10SM FEW180 SCT250 04/M11 A3049 RMK AO2 SLP330 T00441111
Traffic Incident Summary
Active as of:
Severity:
Category:
InformationThere was an issue retrieving the traffic information for this location. Please try a different location or try again shortly.
Advertisements
Track Severe Weather on mobile